createdAt,value
2023-03-11T00:00:18.744Z,33.59
2023-03-11T00:03:09.863Z,33.51
2023-03-11T00:05:56.458Z,33.50
2023-03-11T00:08:41.880Z,33.58
2023-03-11T00:11:27.266Z,33.23
2023-03-11T00:14:12.202Z,33.28
2023-03-11T00:16:57.371Z,33.39
2023-03-11T00:19:42.487Z,32.97
2023-03-11T00:22:27.189Z,33.15
2023-03-11T00:25:12.216Z,33.43
2023-03-11T00:27:57.276Z,33.14
2023-03-11T00:30:42.713Z,33.14
2023-03-11T00:33:27.649Z,33.36
2023-03-11T00:36:28.817Z,33.05
2023-03-11T00:39:13.762Z,32.87
2023-03-11T00:41:58.886Z,33.23
2023-03-11T00:44:43.845Z,32.97
2023-03-11T00:47:28.605Z,32.90
2023-03-11T00:50:15.720Z,32.82
2023-03-11T00:53:00.776Z,32.76
2023-03-11T00:55:46.181Z,32.89
2023-03-11T00:58:33.154Z,32.86
2023-03-11T01:01:19.174Z,32.87
2023-03-11T01:04:04.642Z,32.77
2023-03-11T01:06:50.029Z,32.94
2023-03-11T01:09:34.974Z,32.98
2023-03-11T01:12:20.347Z,32.88
2023-03-11T01:15:05.811Z,32.48
2023-03-11T01:17:51.070Z,32.44
2023-03-11T01:20:37.553Z,32.47
2023-03-11T01:23:23.359Z,32.81
2023-03-11T01:26:08.605Z,32.64
2023-03-11T01:28:53.471Z,32.92
2023-03-11T01:31:38.476Z,32.24
2023-03-11T01:34:23.778Z,32.29
2023-03-11T01:37:08.571Z,32.67
2023-03-11T01:39:53.823Z,32.37
2023-03-11T01:42:38.660Z,32.29
2023-03-11T01:45:23.861Z,32.60
2023-03-11T01:48:09.670Z,32.44
2023-03-11T01:50:55.899Z,32.33
2023-03-11T01:53:40.771Z,32.20
2023-03-11T01:56:26.253Z,32.53
2023-03-11T01:59:12.230Z,32.35
2023-03-11T02:02:15.864Z,32.06
2023-03-11T02:05:01.318Z,31.97
2023-03-11T02:07:47.256Z,32.46
2023-03-11T02:10:35.150Z,32.35
2023-03-11T02:13:20.688Z,32.21
2023-03-11T02:16:06.232Z,32.40
2023-03-11T02:18:51.758Z,32.19
2023-03-11T02:21:37.122Z,32.25
2023-03-11T02:24:36.756Z,32.06
2023-03-11T02:27:22.262Z,32.12
2023-03-11T02:30:08.857Z,31.92
2023-03-11T02:32:55.394Z,32.17
2023-03-11T02:35:40.610Z,32.27
2023-03-11T02:38:25.987Z,32.18
2023-03-11T02:41:12.140Z,32.18
2023-03-11T02:43:57.057Z,32.16
2023-03-11T02:46:43.011Z,32.27
2023-03-11T02:49:29.683Z,32.27
2023-03-11T02:52:14.879Z,32.13
2023-03-11T02:55:00.348Z,31.74
2023-03-11T02:57:46.453Z,32.10
2023-03-11T03:00:32.202Z,32.03
2023-03-11T03:03:22.676Z,32.14
2023-03-11T03:06:07.825Z,31.83
2023-03-11T03:08:53.390Z,32.12
2023-03-11T03:11:38.779Z,31.97
2023-03-11T03:14:24.127Z,32.03
2023-03-11T03:17:09.604Z,32.01
2023-03-11T03:19:54.873Z,31.92
2023-03-11T03:22:43.393Z,31.97
2023-03-11T03:25:31.302Z,32.14
2023-03-11T03:28:20.225Z,31.95
2023-03-11T03:31:06.873Z,32.03
2023-03-11T03:33:52.148Z,31.63
2023-03-11T03:36:37.060Z,31.90
2023-03-11T03:39:23.327Z,32.04
2023-03-11T03:42:10.639Z,31.70
2023-03-11T03:44:58.926Z,31.93
2023-03-11T03:47:44.224Z,31.70
2023-03-11T03:50:29.124Z,32.04
2023-03-11T03:53:14.946Z,31.95
2023-03-11T03:56:07.997Z,31.69
2023-03-11T03:58:54.009Z,32.06
2023-03-11T04:01:41.635Z,31.82
2023-03-11T04:04:27.136Z,31.75
2023-03-11T04:07:13.233Z,31.81
2023-03-11T04:09:58.853Z,31.84
2023-03-11T04:12:44.299Z,31.64
2023-03-11T04:15:30.254Z,31.92
2023-03-11T04:18:15.506Z,31.58
2023-03-11T04:21:04.428Z,32.04
2023-03-11T04:23:49.605Z,31.88
2023-03-11T04:26:41.109Z,31.91
2023-03-11T04:29:30.567Z,31.56
2023-03-11T04:32:15.968Z,31.45
2023-03-11T04:35:02.198Z,31.77
2023-03-11T04:37:47.434Z,31.52
2023-03-11T04:40:33.000Z,31.92
2023-03-11T04:43:18.520Z,31.59
2023-03-11T04:46:04.047Z,31.58
2023-03-11T04:48:50.110Z,31.62
2023-03-11T04:51:35.880Z,31.67
2023-03-11T04:54:21.791Z,31.69
2023-03-11T04:57:07.253Z,31.79
2023-03-11T04:59:53.538Z,31.76
2023-03-11T05:02:39.250Z,32.10
2023-03-11T05:05:24.644Z,32.05
2023-03-11T05:08:09.973Z,31.87
2023-03-11T05:10:55.551Z,31.98
2023-03-11T05:13:41.817Z,32.13
2023-03-11T05:16:27.465Z,32.20
2023-03-11T05:19:30.899Z,32.22
2023-03-11T05:22:17.667Z,32.31
2023-03-11T05:25:03.960Z,32.12
2023-03-11T05:27:49.392Z,32.19
2023-03-11T05:30:35.655Z,32.30
2023-03-11T05:33:21.524Z,32.10
2023-03-11T05:36:08.943Z,32.20
2023-03-11T05:38:55.573Z,32.02
2023-03-11T05:41:40.996Z,32.10
2023-03-11T05:44:26.257Z,31.76
2023-03-11T05:47:13.143Z,31.86
2023-03-11T05:49:59.107Z,31.82
2023-03-11T05:52:44.331Z,31.72
2023-03-11T05:55:30.226Z,31.72
2023-03-11T05:58:15.845Z,31.66
2023-03-11T06:01:01.069Z,31.56
2023-03-11T06:03:46.853Z,31.56
2023-03-11T06:06:33.101Z,31.52
2023-03-11T06:09:18.413Z,31.55
2023-03-11T06:12:04.413Z,31.39
2023-03-11T06:15:02.987Z,31.41
2023-03-11T06:17:48.318Z,31.30
2023-03-11T06:20:33.793Z,31.26
2023-03-11T06:23:19.380Z,31.11
2023-03-11T06:26:05.102Z,31.14
2023-03-11T06:28:55.412Z,31.03
2023-03-11T06:31:41.512Z,31.07
2023-03-11T06:34:29.306Z,30.97
2023-03-11T06:37:15.019Z,30.99
2023-03-11T06:40:00.492Z,30.88
2023-03-11T06:42:46.484Z,30.92
2023-03-11T06:45:31.724Z,30.99
2023-03-11T06:48:17.075Z,30.84
2023-03-11T06:51:03.003Z,31.16
2023-03-11T06:53:50.253Z,31.10
2023-03-11T06:56:36.542Z,30.80
2023-03-11T06:59:24.715Z,30.76
2023-03-11T07:02:10.881Z,30.85
2023-03-11T07:04:56.042Z,30.94
2023-03-11T07:07:40.987Z,30.85
2023-03-11T07:10:26.326Z,30.66
2023-03-11T07:13:11.785Z,30.83
2023-03-11T07:16:07.690Z,30.71
2023-03-11T07:18:54.350Z,30.41
2023-03-11T07:21:39.512Z,30.54
2023-03-11T07:24:24.605Z,30.96
2023-03-11T07:27:09.580Z,30.66
2023-03-11T07:29:54.498Z,30.73
2023-03-11T07:32:39.581Z,30.79
2023-03-11T07:35:50.450Z,30.87
2023-03-11T07:38:35.801Z,30.79
2023-03-11T07:41:20.646Z,30.72
2023-03-11T07:44:05.542Z,30.86
2023-03-11T07:46:50.729Z,30.47
2023-03-11T07:49:35.749Z,30.49
2023-03-11T07:52:20.704Z,30.45
2023-03-11T07:55:05.638Z,30.46
2023-03-11T07:57:51.673Z,30.81
2023-03-11T08:00:36.464Z,30.28
2023-03-11T08:03:21.430Z,30.40
2023-03-11T08:06:16.283Z,30.53
2023-03-11T08:09:02.573Z,30.04
2023-03-11T08:11:49.683Z,30.68
2023-03-11T08:14:35.220Z,30.09
2023-03-11T08:17:20.005Z,29.49
2023-03-11T08:20:08.380Z,28.71
2023-03-11T08:22:58.167Z,29.01
2023-03-11T08:25:43.881Z,29.18
2023-03-11T08:28:28.665Z,28.99
2023-03-11T08:31:14.621Z,29.14
2023-03-11T08:34:01.362Z,29.47
2023-03-11T08:36:46.759Z,28.98
2023-03-11T08:39:31.763Z,29.22
2023-03-11T08:42:17.042Z,30.08
2023-03-11T08:45:01.994Z,28.02
2023-03-11T08:47:47.415Z,27.48
2023-03-11T08:50:36.583Z,26.05
2023-03-11T08:53:26.324Z,26.44
2023-03-11T08:56:11.254Z,28.15
2023-03-11T08:58:56.061Z,28.84
2023-03-11T09:01:42.521Z,29.11
2023-03-11T09:04:27.331Z,29.38
2023-03-11T09:07:12.196Z,29.42
2023-03-11T09:09:57.597Z,29.67
2023-03-11T09:12:42.727Z,29.61
2023-03-11T09:15:28.907Z,29.85
2023-03-11T09:18:13.993Z,30.11
2023-03-11T09:21:00.340Z,29.96
2023-03-11T09:23:45.457Z,29.99
2023-03-11T09:26:30.757Z,30.16
2023-03-11T09:29:15.731Z,30.21
2023-03-11T09:32:01.158Z,30.40
2023-03-11T09:34:46.073Z,30.23
2023-03-11T09:37:31.007Z,30.38
2023-03-11T09:40:17.961Z,29.39
2023-03-11T09:43:06.850Z,29.13
2023-03-11T09:46:27.593Z,29.44
2023-03-11T09:49:12.849Z,29.65
2023-03-11T09:52:17.203Z,30.06
2023-03-11T09:55:02.225Z,30.32
2023-03-11T09:57:46.930Z,30.24
2023-03-11T10:00:32.153Z,30.52
2023-03-11T10:03:39.895Z,30.29
2023-03-11T10:06:26.064Z,30.36
2023-03-11T10:09:29.616Z,30.77
2023-03-11T10:12:14.462Z,30.38
2023-03-11T10:15:12.439Z,30.53
2023-03-11T10:18:01.462Z,30.89
2023-03-11T10:20:55.148Z,30.83
2023-03-11T10:24:01.869Z,30.04
2023-03-11T10:26:48.752Z,28.01
2023-03-11T10:29:45.915Z,27.16
2023-03-11T10:32:44.460Z,27.93
2023-03-11T10:35:32.734Z,29.54
2023-03-11T10:38:35.178Z,30.25
2023-03-11T10:41:39.313Z,30.39
2023-03-11T10:44:37.561Z,30.66
2023-03-11T10:47:24.280Z,30.86
2023-03-11T10:50:13.805Z,30.85
2023-03-11T10:53:06.810Z,31.00
2023-03-11T10:55:53.766Z,31.19
2023-03-11T10:58:38.885Z,31.50
2023-03-11T11:01:24.286Z,31.63
2023-03-11T11:04:23.741Z,31.48
2023-03-11T11:07:21.520Z,31.60
2023-03-11T11:10:23.246Z,31.64
2023-03-11T11:13:08.321Z,32.03
2023-03-11T11:15:55.586Z,31.80
2023-03-11T11:18:44.437Z,31.48
2023-03-11T11:21:34.180Z,31.09
2023-03-11T11:24:24.114Z,31.14
2023-03-11T11:27:22.399Z,31.15
2023-03-11T11:30:07.405Z,31.17
2023-03-11T11:32:53.907Z,31.02
2023-03-11T11:35:38.949Z,30.97
2023-03-11T11:38:24.536Z,31.14
2023-03-11T11:41:11.153Z,31.37
2023-03-11T11:43:56.719Z,31.43
2023-03-11T11:46:43.273Z,31.47
2023-03-11T11:49:29.110Z,31.54
2023-03-11T11:52:16.160Z,31.71
2023-03-11T11:55:01.379Z,31.91
2023-03-11T11:57:46.520Z,31.90
2023-03-11T12:00:38.090Z,31.82
2023-03-11T12:03:38.453Z,31.64
2023-03-11T12:06:59.130Z,31.73
2023-03-11T12:09:46.905Z,31.51
2023-03-11T12:12:40.746Z,31.40
2023-03-11T12:15:29.641Z,31.38
2023-03-11T12:18:20.349Z,31.27
2023-03-11T12:21:30.613Z,31.12
2023-03-11T12:24:15.678Z,31.31
2023-03-11T12:26:42.557Z,30.92
2023-03-11T12:29:53.582Z,30.99
2023-03-11T12:32:40.157Z,31.08
2023-03-11T12:35:29.861Z,31.02
2023-03-11T12:38:17.709Z,30.90
2023-03-11T12:41:06.385Z,31.14
2023-03-11T12:43:51.424Z,31.09
2023-03-11T12:46:57.576Z,31.13
2023-03-11T12:49:44.056Z,31.15
2023-03-11T12:52:29.383Z,31.20
2023-03-11T12:55:17.517Z,31.03
2023-03-11T12:58:24.300Z,31.16
2023-03-11T13:01:12.457Z,30.94
2023-03-11T13:04:01.138Z,31.16
2023-03-11T13:07:01.699Z,31.36
2023-03-11T13:09:59.489Z,31.51
2023-03-11T13:12:44.556Z,31.72
2023-03-11T13:15:30.816Z,31.68
2023-03-11T13:18:24.167Z,31.99
2023-03-11T13:21:27.720Z,32.12
2023-03-11T13:24:18.602Z,31.88
2023-03-11T13:27:05.517Z,31.69
2023-03-11T13:30:10.219Z,31.64
2023-03-11T13:33:13.968Z,31.02
2023-03-11T13:36:04.880Z,30.93
2023-03-11T13:39:08.367Z,30.76
2023-03-11T13:41:53.224Z,30.47
2023-03-11T13:44:38.030Z,30.53
2023-03-11T13:47:23.104Z,30.41
2023-03-11T13:50:08.474Z,30.31
2023-03-11T13:52:53.792Z,30.51
2023-03-11T13:55:40.384Z,30.62
2023-03-11T13:58:26.155Z,30.41
2023-03-11T14:01:14.935Z,30.41
2023-03-11T14:04:00.330Z,30.52
2023-03-11T14:06:45.677Z,30.38
2023-03-11T14:09:30.871Z,30.57
2023-03-11T14:12:18.596Z,30.36
2023-03-11T14:15:07.610Z,30.45
2023-03-11T14:17:52.888Z,30.44
2023-03-11T14:20:38.194Z,30.27
2023-03-11T14:23:23.388Z,30.39
2023-03-11T14:26:09.551Z,30.48
2023-03-11T14:28:55.165Z,30.20
2023-03-11T14:31:41.068Z,30.33
2023-03-11T14:34:27.596Z,30.29
2023-03-11T14:37:32.272Z,30.20
2023-03-11T14:40:20.420Z,30.27
2023-03-11T14:43:06.650Z,30.28
2023-03-11T14:45:51.627Z,30.20
2023-03-11T14:48:41.629Z,30.26
2023-03-11T14:51:29.177Z,30.22
2023-03-11T14:54:18.904Z,30.13
2023-03-11T14:57:05.031Z,30.21
2023-03-11T14:59:50.476Z,30.45
2023-03-11T15:02:39.993Z,30.19
2023-03-11T15:05:27.744Z,30.16
2023-03-11T15:08:12.611Z,30.15
2023-03-11T15:11:05.188Z,30.18
2023-03-11T15:13:53.082Z,30.18
2023-03-11T15:16:38.116Z,30.00
2023-03-11T15:19:29.188Z,30.08
2023-03-11T15:22:22.687Z,29.86
2023-03-11T15:25:18.374Z,30.01
2023-03-11T15:28:22.243Z,30.04
2023-03-11T15:31:22.362Z,29.90
2023-03-11T15:34:17.095Z,30.12
2023-03-11T15:37:04.005Z,29.94
2023-03-11T15:39:51.124Z,30.09
2023-03-11T15:42:36.158Z,29.83
2023-03-11T15:45:20.897Z,29.92
2023-03-11T15:48:05.782Z,29.89
2023-03-11T15:50:55.178Z,29.85
2023-03-11T15:53:40.636Z,29.84
2023-03-11T15:56:25.503Z,29.88
2023-03-11T15:59:12.250Z,29.50
2023-03-11T16:01:59.500Z,29.68
2023-03-11T16:04:44.782Z,29.60
2023-03-11T16:07:39.617Z,29.62
2023-03-11T16:10:25.745Z,29.62
2023-03-11T16:13:12.021Z,29.78
2023-03-11T16:15:57.169Z,29.62
2023-03-11T16:18:42.251Z,29.87
2023-03-11T16:21:30.940Z,30.02
2023-03-11T16:24:19.778Z,29.87
2023-03-11T16:27:05.458Z,29.83
2023-03-11T16:29:50.763Z,30.00
2023-03-11T16:32:35.539Z,29.88
2023-03-11T16:35:21.179Z,29.89
2023-03-11T16:38:07.008Z,29.83
2023-03-11T16:41:01.686Z,29.97
2023-03-11T16:43:46.651Z,29.83
2023-03-11T16:46:31.719Z,29.95
2023-03-11T16:49:17.101Z,30.06
2023-03-11T16:52:01.953Z,30.14
2023-03-11T16:54:47.474Z,30.16
2023-03-11T16:57:32.753Z,30.00
2023-03-11T17:00:18.215Z,30.16
2023-03-11T17:03:03.735Z,30.14
2023-03-11T17:05:49.041Z,29.93
2023-03-11T17:08:34.303Z,30.01
2023-03-11T17:11:22.666Z,30.07
2023-03-11T17:14:16.175Z,30.04
2023-03-11T17:17:01.837Z,30.08
2023-03-11T17:19:46.794Z,29.94
2023-03-11T17:22:32.455Z,30.04
2023-03-11T17:25:17.661Z,30.09
2023-03-11T17:28:02.889Z,30.10
2023-03-11T17:30:48.096Z,30.12
2023-03-11T17:33:33.592Z,30.04
2023-03-11T17:36:18.462Z,29.89
2023-03-11T17:39:03.660Z,29.82
2023-03-11T17:41:49.141Z,30.07
2023-03-11T17:44:50.113Z,30.19
2023-03-11T17:47:36.666Z,29.85
2023-03-11T17:50:21.770Z,29.97
2023-03-11T17:53:06.910Z,30.05
2023-03-11T17:55:51.823Z,30.00
2023-03-11T17:58:36.580Z,30.13
2023-03-11T18:01:25.161Z,29.98
2023-03-11T18:04:10.200Z,30.08
2023-03-11T18:06:55.590Z,29.93
2023-03-11T18:09:40.841Z,29.95
2023-03-11T18:12:26.129Z,29.90
2023-03-11T18:15:16.060Z,30.10
2023-03-11T18:18:01.223Z,30.04
2023-03-11T18:20:46.681Z,29.99
2023-03-11T18:23:34.641Z,29.92
2023-03-11T18:26:19.537Z,29.96
2023-03-11T18:29:04.720Z,29.95
2023-03-11T18:31:49.989Z,30.00
2023-03-11T18:34:35.466Z,29.89
2023-03-11T18:37:20.886Z,29.99
2023-03-11T18:40:07.113Z,29.98
2023-03-11T18:42:52.376Z,29.96
2023-03-11T18:45:38.748Z,29.77
2023-03-11T18:48:24.032Z,29.76
2023-03-11T18:51:09.431Z,29.86
2023-03-11T18:53:54.633Z,29.67
2023-03-11T18:56:39.674Z,29.87
2023-03-11T18:59:26.678Z,29.78
2023-03-11T19:02:11.709Z,29.74
2023-03-11T19:04:56.594Z,29.78
2023-03-11T19:07:42.000Z,29.78
2023-03-11T19:10:27.455Z,29.89
2023-03-11T19:13:12.360Z,29.82
2023-03-11T19:15:59.560Z,29.78
2023-03-11T19:18:44.468Z,29.74
2023-03-11T19:21:29.608Z,29.78
2023-03-11T19:24:14.664Z,29.79
2023-03-11T19:26:59.430Z,29.78
2023-03-11T19:29:45.249Z,29.79
2023-03-11T19:32:30.673Z,29.73
2023-03-11T19:35:17.004Z,29.47
2023-03-11T19:38:02.168Z,29.62
2023-03-11T19:40:50.998Z,29.49
2023-03-11T19:43:35.995Z,29.56
2023-03-11T19:46:21.558Z,29.41
2023-03-11T19:49:06.465Z,29.51
2023-03-11T19:51:52.845Z,29.25
2023-03-11T19:54:37.589Z,29.51
2023-03-11T19:57:22.937Z,29.61
2023-03-11T20:00:08.659Z,29.37
2023-03-11T20:02:54.491Z,29.26
2023-03-11T20:05:40.792Z,29.26
2023-03-11T20:08:26.097Z,29.26
2023-03-11T20:11:11.469Z,29.24
2023-03-11T20:13:56.762Z,29.20
2023-03-11T20:16:42.236Z,29.25
2023-03-11T20:19:27.566Z,29.20
2023-03-11T20:22:13.093Z,29.01
2023-03-11T20:24:57.929Z,28.97
2023-03-11T20:27:43.160Z,29.10
2023-03-11T20:30:29.199Z,29.11
2023-03-11T20:33:14.268Z,28.96
2023-03-11T20:36:04.591Z,28.92
2023-03-11T20:38:50.174Z,28.88
2023-03-11T20:41:38.082Z,29.08
2023-03-11T20:44:23.048Z,28.78
2023-03-11T20:47:08.457Z,28.87
2023-03-11T20:49:53.918Z,28.98
2023-03-11T20:52:38.667Z,28.90
2023-03-11T20:55:23.753Z,28.94
2023-03-11T20:58:08.932Z,28.81
2023-03-11T21:00:54.311Z,28.75
2023-03-11T21:03:39.842Z,28.88
2023-03-11T21:06:29.389Z,28.87
2023-03-11T21:09:14.930Z,28.78
2023-03-11T21:12:01.564Z,28.71
2023-03-11T21:14:46.475Z,28.88
2023-03-11T21:17:32.769Z,28.90
2023-03-11T21:20:17.593Z,28.75
2023-03-11T21:23:02.934Z,28.72
2023-03-11T21:25:48.298Z,28.91
2023-03-11T21:28:38.754Z,28.65
2023-03-11T21:31:27.129Z,28.85
2023-03-11T21:34:13.944Z,28.70
2023-03-11T21:36:59.069Z,28.80
2023-03-11T21:39:44.536Z,29.06
2023-03-11T21:42:30.121Z,28.85
2023-03-11T21:45:15.326Z,28.71
2023-03-11T21:48:00.974Z,28.82
2023-03-11T21:50:48.437Z,28.60
2023-03-11T21:53:33.403Z,28.47
2023-03-11T21:56:18.230Z,28.63
2023-03-11T21:59:03.846Z,28.61
2023-03-11T22:01:49.119Z,28.50
2023-03-11T22:04:34.427Z,28.68
2023-03-11T22:07:19.696Z,28.55
2023-03-11T22:10:05.405Z,28.67
2023-03-11T22:12:50.458Z,28.71
2023-03-11T22:15:37.521Z,28.87
2023-03-11T22:18:22.645Z,28.72
2023-03-11T22:21:10.301Z,28.68
2023-03-11T22:23:55.909Z,28.49
2023-03-11T22:26:40.672Z,28.59
2023-03-11T22:29:25.576Z,28.42
2023-03-11T22:32:10.557Z,28.43
2023-03-11T22:34:55.646Z,28.78
2023-03-11T22:37:40.504Z,28.61
2023-03-11T22:40:26.827Z,28.63
2023-03-11T22:43:11.822Z,28.66
2023-03-11T22:45:57.208Z,28.79
2023-03-11T22:48:42.595Z,28.47
2023-03-11T22:51:27.837Z,28.59
2023-03-11T22:54:12.927Z,28.65
2023-03-11T22:56:57.990Z,28.78
2023-03-11T22:59:42.896Z,28.86
2023-03-11T23:02:28.031Z,28.61
2023-03-11T23:05:13.564Z,28.40
2023-03-11T23:07:58.724Z,28.55
2023-03-11T23:10:44.623Z,28.46
2023-03-11T23:13:30.467Z,28.66
2023-03-11T23:16:16.996Z,28.56
2023-03-11T23:19:02.089Z,28.49
2023-03-11T23:21:46.968Z,28.61
2023-03-11T23:24:31.900Z,28.51
2023-03-11T23:27:16.811Z,28.58
2023-03-11T23:30:01.795Z,28.58
2023-03-11T23:32:46.965Z,28.43
2023-03-11T23:35:32.541Z,28.30
2023-03-11T23:38:17.648Z,28.32
2023-03-11T23:41:12.950Z,28.59
2023-03-11T23:43:58.215Z,28.33
2023-03-11T23:46:43.073Z,28.47
2023-03-11T23:49:27.870Z,28.64
2023-03-11T23:52:12.648Z,28.58
2023-03-11T23:54:57.480Z,28.47
2023-03-11T23:57:42.452Z,28.55
